createdAt,value
2022-10-11T00:01:31.321Z,15.87
2022-10-11T00:03:57.900Z,15.93
2022-10-11T00:06:26.605Z,15.96
2022-10-11T00:08:53.183Z,15.83
2022-10-11T00:11:19.733Z,16.02
2022-10-11T00:13:46.350Z,15.97
2022-10-11T00:16:14.236Z,16.01
2022-10-11T00:18:41.483Z,15.79
2022-10-11T00:21:12.144Z,15.94
2022-10-11T00:23:39.014Z,15.90
2022-10-11T00:26:08.043Z,15.85
2022-10-11T00:28:35.846Z,15.96
2022-10-11T00:31:05.313Z,16.11
2022-10-11T00:33:32.091Z,15.97
2022-10-11T00:36:00.775Z,16.08
2022-10-11T00:38:31.983Z,15.77
2022-10-11T00:40:59.964Z,15.92
2022-10-11T00:43:31.294Z,15.90
2022-10-11T00:46:06.905Z,15.91
2022-10-11T00:48:39.031Z,15.99
2022-10-11T00:51:12.999Z,15.99
2022-10-11T00:53:40.480Z,15.75
2022-10-11T00:56:13.078Z,15.70
2022-10-11T00:58:41.370Z,15.70
2022-10-11T01:01:08.198Z,15.77
2022-10-11T01:03:37.587Z,15.66
2022-10-11T01:06:04.494Z,15.70
2022-10-11T01:08:31.758Z,15.77
2022-10-11T01:10:59.250Z,15.60
2022-10-11T01:13:37.631Z,15.75
2022-10-11T01:16:10.188Z,15.72
2022-10-11T01:19:02.770Z,15.65
2022-10-11T01:21:48.105Z,15.58
2022-10-11T01:24:17.781Z,15.72
2022-10-11T01:26:53.114Z,15.76
2022-10-11T01:30:01.122Z,15.69
2022-10-11T01:32:38.126Z,15.64
2022-10-11T01:35:13.174Z,15.59
2022-10-11T01:37:46.394Z,15.50
2022-10-11T01:40:21.487Z,15.52
2022-10-11T01:42:49.355Z,15.55
2022-10-11T01:45:18.851Z,15.58
2022-10-11T01:47:48.734Z,15.51
2022-10-11T01:50:55.616Z,15.47
2022-10-11T01:53:31.461Z,15.46
2022-10-11T01:56:14.862Z,15.28
2022-10-11T01:59:12.013Z,15.41
2022-10-11T02:01:53.847Z,15.38
2022-10-11T02:04:37.210Z,15.28
2022-10-11T02:07:17.058Z,15.25
2022-10-11T02:09:56.816Z,15.09
2022-10-11T02:12:37.743Z,15.04
2022-10-11T02:15:09.212Z,15.12
2022-10-11T02:17:43.503Z,15.23
2022-10-11T02:20:16.259Z,15.17
2022-10-11T02:22:46.396Z,15.07
2022-10-11T02:25:17.844Z,15.02
2022-10-11T02:27:48.746Z,15.26
2022-10-11T02:30:16.372Z,15.26
2022-10-11T02:32:46.493Z,15.09
2022-10-11T02:35:13.799Z,15.00
2022-10-11T02:37:40.320Z,15.18
2022-10-11T02:40:15.947Z,15.24
2022-10-11T02:42:51.491Z,15.23
2022-10-11T02:45:38.906Z,15.25
2022-10-11T02:48:07.377Z,15.19
2022-10-11T02:50:37.699Z,15.17
2022-10-11T02:53:08.181Z,15.13
2022-10-11T02:55:35.526Z,15.03
2022-10-11T02:58:02.663Z,15.18
2022-10-11T03:00:29.584Z,15.12
2022-10-11T03:02:56.163Z,14.95
2022-10-11T03:05:22.714Z,15.08
2022-10-11T03:07:49.227Z,15.13
2022-10-11T03:10:15.889Z,15.12
2022-10-11T03:12:42.510Z,15.16
2022-10-11T03:15:09.482Z,15.20
2022-10-11T03:17:39.039Z,15.14
2022-10-11T03:20:09.174Z,15.11
2022-10-11T03:22:38.713Z,15.07
2022-10-11T03:25:06.232Z,15.07
2022-10-11T03:27:33.928Z,15.02
2022-10-11T03:30:01.039Z,15.09
2022-10-11T03:32:28.602Z,14.96
2022-10-11T03:34:55.340Z,14.98
2022-10-11T03:37:21.980Z,15.08
2022-10-11T03:39:48.823Z,14.87
2022-10-11T03:42:15.359Z,15.11
2022-10-11T03:44:42.266Z,15.09
2022-10-11T03:47:09.362Z,15.06
2022-10-11T03:49:43.275Z,14.83
2022-10-11T03:52:10.759Z,15.20
2022-10-11T03:54:37.638Z,14.95
2022-10-11T03:57:04.477Z,14.79
2022-10-11T03:59:31.103Z,14.98
2022-10-11T04:01:57.713Z,14.98
2022-10-11T04:04:24.313Z,15.02
2022-10-11T04:06:50.946Z,15.07
2022-10-11T04:09:17.523Z,15.02
2022-10-11T04:11:44.032Z,14.96
2022-10-11T04:14:10.592Z,14.90
2022-10-11T04:16:41.709Z,14.83
2022-10-11T04:19:10.466Z,14.80
2022-10-11T04:21:37.056Z,14.95
2022-10-11T04:24:04.150Z,15.02
2022-10-11T04:26:30.943Z,15.02
2022-10-11T04:28:57.767Z,14.99
2022-10-11T04:31:24.343Z,14.80
2022-10-11T04:33:50.959Z,14.84
2022-10-11T04:36:17.566Z,14.88
2022-10-11T04:38:44.125Z,14.79
2022-10-11T04:41:14.707Z,14.66
2022-10-11T04:43:41.636Z,14.82
2022-10-11T04:46:11.967Z,14.89
2022-10-11T04:48:38.630Z,14.84
2022-10-11T04:51:05.476Z,14.85
2022-10-11T04:53:32.126Z,14.87
2022-10-11T04:56:05.076Z,14.68
2022-10-11T04:58:34.039Z,14.60
2022-10-11T05:01:01.238Z,14.77
2022-10-11T05:03:28.324Z,14.79
2022-10-11T05:05:55.224Z,14.67
2022-10-11T05:08:24.442Z,14.71
2022-10-11T05:11:07.332Z,14.71
2022-10-11T05:13:37.379Z,14.62
2022-10-11T05:16:10.265Z,14.77
2022-10-11T05:18:38.375Z,14.86
2022-10-11T05:21:14.866Z,14.88
2022-10-11T05:23:44.854Z,14.83
2022-10-11T05:26:11.918Z,14.69
2022-10-11T05:28:38.743Z,14.79
2022-10-11T05:31:05.389Z,14.77
2022-10-11T05:33:32.588Z,14.79
2022-10-11T05:35:59.144Z,14.58
2022-10-11T05:38:25.633Z,14.48
2022-10-11T05:40:52.282Z,14.66
2022-10-11T05:43:18.964Z,14.41
2022-10-11T05:45:46.468Z,14.46
2022-10-11T05:48:16.000Z,14.59
2022-10-11T05:50:46.293Z,14.49
2022-10-11T05:53:14.417Z,14.60
2022-10-11T05:55:45.960Z,14.58
2022-10-11T05:58:15.236Z,14.24
2022-10-11T06:00:44.222Z,14.61
2022-10-11T06:03:14.503Z,14.62
2022-10-11T06:05:44.079Z,14.65
2022-10-11T06:08:11.221Z,14.69
2022-10-11T06:10:38.853Z,14.54
2022-10-11T06:13:06.487Z,14.63
2022-10-11T06:15:34.294Z,14.83
2022-10-11T06:18:01.221Z,14.87
2022-10-11T06:20:27.892Z,14.84
2022-10-11T06:22:54.527Z,14.73
2022-10-11T06:25:21.064Z,14.83
2022-10-11T06:27:47.665Z,14.76
2022-10-11T06:30:17.613Z,14.95
2022-10-11T06:32:46.861Z,14.71
2022-10-11T06:35:16.920Z,14.87
2022-10-11T06:37:46.224Z,14.97
2022-10-11T06:40:15.848Z,15.16
2022-10-11T06:42:44.883Z,15.13
2022-10-11T06:45:15.402Z,15.08
2022-10-11T06:47:44.242Z,15.19
2022-10-11T06:50:10.758Z,15.26
2022-10-11T06:52:37.309Z,15.22
2022-10-11T06:55:04.216Z,15.33
2022-10-11T06:57:30.713Z,15.30
2022-10-11T06:59:57.275Z,15.36
2022-10-11T07:02:23.782Z,15.30
2022-10-11T07:04:50.355Z,15.39
2022-10-11T07:07:17.069Z,15.21
2022-10-11T07:09:47.419Z,15.57
2022-10-11T07:12:17.117Z,15.46
2022-10-11T07:14:46.556Z,15.64
2022-10-11T07:17:15.897Z,15.35
2022-10-11T07:19:47.639Z,15.54
2022-10-11T07:22:17.494Z,15.66
2022-10-11T07:24:49.437Z,15.65
2022-10-11T07:27:15.966Z,15.66
2022-10-11T07:29:45.428Z,15.53
2022-10-11T07:32:14.270Z,15.73
2022-10-11T07:34:40.790Z,15.77
2022-10-11T07:37:07.382Z,15.92
2022-10-11T07:39:39.498Z,15.82
2022-10-11T07:42:06.910Z,16.01
2022-10-11T07:44:34.302Z,16.23
2022-10-11T07:47:00.894Z,16.16
2022-10-11T07:49:27.739Z,16.47
2022-10-11T07:51:54.336Z,16.43
2022-10-11T07:54:20.939Z,16.74
2022-10-11T07:56:47.496Z,16.78
2022-10-11T07:59:17.183Z,16.89
2022-10-11T08:01:46.809Z,17.18
2022-10-11T08:04:16.348Z,17.26
2022-10-11T08:06:48.614Z,17.31
2022-10-11T08:09:17.664Z,17.52
2022-10-11T08:11:46.974Z,17.72
2022-10-11T08:14:17.478Z,18.03
2022-10-11T08:16:46.661Z,18.39
2022-10-11T08:19:18.663Z,18.76
2022-10-11T08:21:45.312Z,19.15
2022-10-11T08:24:17.114Z,19.19
2022-10-11T08:26:48.431Z,19.39
2022-10-11T08:29:15.193Z,19.31
2022-10-11T08:31:42.009Z,19.39
2022-10-11T08:34:09.333Z,19.53
2022-10-11T08:36:35.946Z,19.35
2022-10-11T08:39:02.777Z,19.25
2022-10-11T08:41:38.092Z,19.10
2022-10-11T08:44:14.927Z,19.03
2022-10-11T08:46:47.009Z,18.85
2022-10-11T08:49:15.658Z,18.77
2022-10-11T08:51:50.830Z,18.49
2022-10-11T08:54:26.808Z,18.75
2022-10-11T08:56:53.595Z,18.57
2022-10-11T08:59:35.961Z,18.76
2022-10-11T09:02:55.690Z,18.87
2022-10-11T09:05:21.812Z,18.69
2022-10-11T09:08:05.592Z,18.88
2022-10-11T09:10:56.095Z,18.93
2022-10-11T09:13:31.475Z,19.00
2022-10-11T09:16:39.618Z,18.76
2022-10-11T09:19:34.872Z,19.00
2022-10-11T09:22:01.501Z,19.01
2022-10-11T09:24:49.116Z,18.95
2022-10-11T09:27:25.950Z,18.71
2022-10-11T09:30:14.737Z,18.62
2022-10-11T09:32:54.594Z,18.86
2022-10-11T09:35:22.748Z,18.94
2022-10-11T09:38:04.008Z,19.24
2022-10-11T09:41:14.317Z,19.50
2022-10-11T09:43:41.484Z,19.57
2022-10-11T09:46:32.483Z,19.71
2022-10-11T09:49:02.827Z,19.73
2022-10-11T09:51:30.288Z,19.79
2022-10-11T09:54:05.037Z,19.84
2022-10-11T09:56:33.934Z,19.78
2022-10-11T09:59:18.254Z,20.01
2022-10-11T10:01:45.257Z,19.95
2022-10-11T10:04:20.013Z,20.05
2022-10-11T10:06:46.650Z,20.24
2022-10-11T10:09:31.048Z,20.58
2022-10-11T10:12:00.026Z,20.66
2022-10-11T10:14:30.942Z,20.89
2022-10-11T10:17:01.857Z,21.08
2022-10-11T10:19:28.852Z,20.93
2022-10-11T10:21:56.811Z,20.68
2022-10-11T10:24:48.248Z,20.97
2022-10-11T10:27:14.766Z,21.30
2022-10-11T10:29:43.865Z,21.50
2022-10-11T10:32:25.649Z,21.34
2022-10-11T10:35:27.465Z,21.32
2022-10-11T10:38:06.846Z,21.03
2022-10-11T10:40:48.475Z,20.82
2022-10-11T10:43:23.960Z,20.65
2022-10-11T10:46:48.448Z,20.53
2022-10-11T10:49:55.566Z,20.41
2022-10-11T10:52:47.742Z,20.22
2022-10-11T10:55:24.227Z,20.15
2022-10-11T10:58:28.249Z,20.07
2022-10-11T11:01:15.674Z,19.90
2022-10-11T11:03:58.542Z,20.05
2022-10-11T11:06:37.225Z,20.03
2022-10-11T11:09:31.007Z,20.10
2022-10-11T11:12:10.520Z,20.00
2022-10-11T11:15:09.554Z,19.98
2022-10-11T11:18:00.446Z,19.90
2022-10-11T11:20:51.977Z,19.80
2022-10-11T11:23:41.957Z,19.72
2022-10-11T11:26:20.829Z,19.71
2022-10-11T11:29:03.506Z,19.71
2022-10-11T11:31:33.142Z,19.70
2022-10-11T11:34:08.781Z,19.72
2022-10-11T11:37:13.321Z,19.69
2022-10-11T11:39:53.125Z,19.75
2022-10-11T11:42:30.040Z,19.75
2022-10-11T11:45:00.438Z,19.93
2022-10-11T11:47:33.737Z,20.01
2022-10-11T11:50:20.850Z,19.76
2022-10-11T11:52:51.957Z,19.94
2022-10-11T11:55:32.387Z,20.01
2022-10-11T11:58:29.797Z,20.03
2022-10-11T12:01:31.512Z,20.19
2022-10-11T12:04:12.588Z,20.26
2022-10-11T12:06:47.918Z,20.41
2022-10-11T12:09:32.704Z,20.66
2022-10-11T12:12:01.595Z,20.63
2022-10-11T12:14:40.107Z,20.71
2022-10-11T12:17:09.383Z,20.72
2022-10-11T12:19:37.449Z,20.71
2022-10-11T12:22:28.992Z,20.94
2022-10-11T12:24:56.894Z,21.00
2022-10-11T12:27:44.451Z,21.07
2022-10-11T12:30:42.604Z,21.18
2022-10-11T12:33:33.332Z,21.33
2022-10-11T12:36:22.307Z,21.40
2022-10-11T12:39:20.962Z,21.46
2022-10-11T12:41:47.416Z,21.40
2022-10-11T12:44:20.784Z,21.41
2022-10-11T12:46:50.365Z,21.38
2022-10-11T12:49:38.052Z,21.31
2022-10-11T12:52:06.945Z,21.21
2022-10-11T12:54:52.556Z,21.10
2022-10-11T12:57:19.021Z,21.00
2022-10-11T12:59:46.853Z,20.86
2022-10-11T13:02:40.266Z,20.75
2022-10-11T13:05:25.720Z,20.64
2022-10-11T13:07:56.687Z,20.52
2022-10-11T13:10:28.936Z,20.36
2022-10-11T13:12:59.645Z,20.27
2022-10-11T13:15:26.941Z,20.25
2022-10-11T13:18:02.127Z,20.21
2022-10-11T13:20:36.229Z,20.11
2022-10-11T13:23:21.911Z,20.14
2022-10-11T13:25:52.755Z,20.13
2022-10-11T13:28:20.351Z,20.22
2022-10-11T13:30:54.357Z,20.23
2022-10-11T13:33:34.771Z,20.15
2022-10-11T13:36:03.987Z,19.94
2022-10-11T13:38:33.645Z,19.76
2022-10-11T13:41:05.285Z,19.78
2022-10-11T13:43:32.480Z,19.73
2022-10-11T13:46:01.537Z,19.54
2022-10-11T13:48:31.875Z,19.28
2022-10-11T13:51:28.045Z,19.30
2022-10-11T13:54:13.434Z,19.24
2022-10-11T13:56:49.846Z,19.11
2022-10-11T13:59:22.817Z,19.14
2022-10-11T14:01:54.285Z,19.11
2022-10-11T14:04:22.575Z,18.88
2022-10-11T14:06:54.513Z,19.14
2022-10-11T14:09:30.511Z,18.95
2022-10-11T14:12:25.887Z,19.11
2022-10-11T14:14:52.877Z,19.15
2022-10-11T14:17:21.881Z,19.22
2022-10-11T14:20:13.421Z,19.29
2022-10-11T14:22:39.928Z,19.36
2022-10-11T14:25:06.820Z,19.37
2022-10-11T14:27:33.411Z,19.33
2022-10-11T14:30:24.168Z,19.36
2022-10-11T14:32:50.248Z,19.31
2022-10-11T14:35:23.589Z,19.28
2022-10-11T14:37:50.298Z,19.04
2022-10-11T14:40:20.581Z,19.35
2022-10-11T14:42:50.945Z,19.06
2022-10-11T14:45:19.294Z,19.29
2022-10-11T14:47:45.971Z,19.27
2022-10-11T14:50:26.215Z,19.32
2022-10-11T14:52:53.598Z,19.27
2022-10-11T14:55:20.281Z,19.50
2022-10-11T14:57:50.031Z,19.55
2022-10-11T15:00:23.412Z,19.49
2022-10-11T15:02:52.729Z,19.43
2022-10-11T15:05:21.181Z,19.54
2022-10-11T15:07:49.195Z,19.41
2022-10-11T15:10:27.883Z,19.69
2022-10-11T15:12:56.125Z,19.70
2022-10-11T15:15:26.119Z,19.70
2022-10-11T15:17:55.475Z,19.70
2022-10-11T15:20:38.416Z,19.53
2022-10-11T15:23:05.684Z,19.42
2022-10-11T15:25:34.747Z,19.48
2022-10-11T15:28:02.138Z,19.50
2022-10-11T15:30:31.603Z,19.42
2022-10-11T15:32:58.692Z,19.12
2022-10-11T15:35:26.673Z,19.23
2022-10-11T15:37:56.684Z,19.20
2022-10-11T15:40:24.528Z,19.22
2022-10-11T15:42:53.560Z,19.17
2022-10-11T15:45:22.835Z,19.13
2022-10-11T15:47:49.963Z,18.98
2022-10-11T15:50:34.616Z,19.00
2022-10-11T15:53:13.609Z,18.95
2022-10-11T15:55:52.076Z,18.99
2022-10-11T15:58:36.288Z,18.90
2022-10-11T16:01:09.778Z,18.86
2022-10-11T16:03:36.742Z,18.78
2022-10-11T16:06:05.738Z,18.81
2022-10-11T16:08:34.136Z,18.61
2022-10-11T16:11:01.184Z,18.52
2022-10-11T16:13:27.945Z,18.62
2022-10-11T16:15:55.060Z,18.51
2022-10-11T16:18:24.793Z,18.48
2022-10-11T16:20:52.486Z,18.49
2022-10-11T16:23:22.243Z,18.46
2022-10-11T16:26:00.575Z,18.42
2022-10-11T16:28:27.726Z,18.38
2022-10-11T16:30:54.779Z,18.31
2022-10-11T16:33:21.779Z,18.20
2022-10-11T16:35:49.246Z,18.24
2022-10-11T16:38:18.201Z,18.14
2022-10-11T16:40:44.693Z,18.13
2022-10-11T16:43:11.218Z,18.09
2022-10-11T16:45:40.484Z,18.05
2022-10-11T16:48:07.026Z,18.00
2022-10-11T16:50:38.475Z,17.90
2022-10-11T16:53:06.096Z,17.91
2022-10-11T16:55:32.647Z,17.85
2022-10-11T16:57:59.162Z,17.77
2022-10-11T17:00:25.794Z,17.66
2022-10-11T17:02:52.391Z,17.66
2022-10-11T17:05:18.960Z,17.67
2022-10-11T17:07:48.663Z,17.59
2022-10-11T17:10:15.483Z,17.49
2022-10-11T17:12:46.462Z,17.46
2022-10-11T17:15:17.852Z,17.47
2022-10-11T17:17:44.357Z,17.47
2022-10-11T17:20:11.093Z,17.41
2022-10-11T17:22:37.582Z,17.43
2022-10-11T17:25:04.335Z,17.46
2022-10-11T17:27:31.378Z,17.37
2022-10-11T17:29:57.873Z,17.40
2022-10-11T17:32:24.405Z,17.45
2022-10-11T17:34:50.978Z,17.39
2022-10-11T17:37:19.095Z,17.31
2022-10-11T17:39:47.145Z,17.28
2022-10-11T17:42:13.755Z,17.29
2022-10-11T17:44:40.314Z,17.31
2022-10-11T17:47:06.813Z,17.19
2022-10-11T17:49:33.309Z,17.21
2022-10-11T17:51:59.799Z,17.13
2022-10-11T17:54:26.449Z,17.17
2022-10-11T17:56:54.472Z,17.15
2022-10-11T17:59:22.960Z,17.17
2022-10-11T18:01:52.550Z,17.14
2022-10-11T18:04:24.007Z,17.09
2022-10-11T18:06:53.727Z,17.20
2022-10-11T18:09:21.813Z,17.17
2022-10-11T18:11:52.793Z,17.16
2022-10-11T18:14:22.430Z,17.11
2022-10-11T18:16:51.746Z,17.16
2022-10-11T18:19:20.662Z,17.06
2022-10-11T18:21:47.159Z,16.98
2022-10-11T18:24:16.526Z,16.94
2022-10-11T18:26:44.849Z,16.84
2022-10-11T18:29:12.646Z,16.85
2022-10-11T18:31:39.952Z,16.83
2022-10-11T18:34:08.361Z,16.87
2022-10-11T18:36:34.957Z,16.78
2022-10-11T18:39:05.465Z,16.89
2022-10-11T18:41:33.176Z,16.87
2022-10-11T18:44:05.994Z,16.83
2022-10-11T18:46:33.119Z,16.84
2022-10-11T18:49:01.944Z,16.91
2022-10-11T18:51:34.687Z,16.87
2022-10-11T18:54:02.071Z,16.85
2022-10-11T18:56:31.266Z,16.82
2022-10-11T18:58:59.200Z,16.77
2022-10-11T19:01:31.599Z,16.79
2022-10-11T19:04:00.325Z,16.83
2022-10-11T19:06:29.773Z,16.80
2022-10-11T19:09:01.829Z,16.76
2022-10-11T19:11:28.634Z,16.83
2022-10-11T19:14:00.837Z,16.75
2022-10-11T19:16:30.075Z,16.79
2022-10-11T19:18:56.904Z,16.72
2022-10-11T19:21:23.617Z,16.78
2022-10-11T19:23:50.911Z,16.77
2022-10-11T19:26:21.490Z,16.74
2022-10-11T19:28:48.588Z,16.66
2022-10-11T19:31:18.994Z,16.62
2022-10-11T19:33:48.098Z,16.56
2022-10-11T19:36:15.424Z,16.30
2022-10-11T19:38:49.469Z,16.58
2022-10-11T19:41:19.539Z,16.57
2022-10-11T19:43:47.085Z,16.52
2022-10-11T19:46:20.142Z,16.53
2022-10-11T19:48:53.008Z,16.42
2022-10-11T19:51:24.894Z,16.44
2022-10-11T19:54:03.820Z,16.41
2022-10-11T19:56:34.701Z,16.35
2022-10-11T19:59:01.782Z,16.36
2022-10-11T20:01:30.966Z,16.36
2022-10-11T20:03:59.751Z,16.40
2022-10-11T20:06:28.281Z,16.38
2022-10-11T20:09:16.561Z,16.40
2022-10-11T20:11:42.261Z,16.39
2022-10-11T20:14:08.888Z,16.33
2022-10-11T20:16:35.766Z,16.38
2022-10-11T20:19:02.556Z,16.35
2022-10-11T20:21:30.279Z,16.31
2022-10-11T20:23:59.912Z,16.07
2022-10-11T20:26:27.566Z,16.36
2022-10-11T20:28:56.137Z,16.36
2022-10-11T20:31:34.224Z,16.33
2022-10-11T20:34:04.312Z,16.29
2022-10-11T20:36:32.645Z,16.32
2022-10-11T20:39:00.249Z,16.23
2022-10-11T20:41:32.257Z,16.24
2022-10-11T20:44:01.043Z,16.24
2022-10-11T20:46:30.115Z,16.26
2022-10-11T20:49:01.748Z,16.32
2022-10-11T20:51:30.200Z,16.33
2022-10-11T20:53:56.977Z,16.31
2022-10-11T20:56:23.809Z,16.27
2022-10-11T20:58:52.488Z,16.31
2022-10-11T21:01:22.135Z,16.26
2022-10-11T21:03:48.747Z,16.25
2022-10-11T21:06:15.490Z,16.28
2022-10-11T21:08:42.331Z,16.25
2022-10-11T21:11:09.571Z,16.23
2022-10-11T21:13:36.532Z,16.29
2022-10-11T21:16:10.562Z,16.30
2022-10-11T21:18:37.773Z,16.31
2022-10-11T21:21:09.404Z,16.25
2022-10-11T21:23:36.072Z,16.30
2022-10-11T21:26:04.271Z,16.28
2022-10-11T21:28:31.851Z,16.27
2022-10-11T21:31:05.252Z,16.25
2022-10-11T21:33:32.773Z,16.25
2022-10-11T21:36:00.136Z,16.23
2022-10-11T21:38:26.658Z,16.25
2022-10-11T21:40:53.229Z,16.19
2022-10-11T21:43:19.735Z,16.20
2022-10-11T21:45:46.328Z,16.17
2022-10-11T21:48:12.878Z,16.23
2022-10-11T21:50:39.428Z,16.22
2022-10-11T21:53:05.912Z,16.26
2022-10-11T21:55:32.424Z,16.18
2022-10-11T21:57:58.939Z,16.17
2022-10-11T22:00:25.500Z,16.19
2022-10-11T22:02:52.237Z,16.23
2022-10-11T22:05:18.833Z,16.10
2022-10-11T22:07:45.611Z,16.05
2022-10-11T22:10:12.132Z,15.94
2022-10-11T22:12:38.754Z,15.89
2022-10-11T22:15:05.914Z,15.94
2022-10-11T22:17:32.399Z,15.92
2022-10-11T22:19:58.923Z,15.95
2022-10-11T22:22:25.488Z,15.92
2022-10-11T22:24:51.965Z,15.93
2022-10-11T22:27:18.471Z,15.91
2022-10-11T22:29:44.976Z,15.87
2022-10-11T22:32:11.528Z,15.99
2022-10-11T22:34:38.022Z,15.97
2022-10-11T22:37:04.562Z,16.00
2022-10-11T22:39:31.050Z,15.92
2022-10-11T22:41:57.526Z,15.94
2022-10-11T22:44:24.039Z,16.01
2022-10-11T22:46:50.556Z,15.99
2022-10-11T22:49:17.061Z,15.94
2022-10-11T22:51:44.466Z,15.92
2022-10-11T22:54:11.432Z,15.91
2022-10-11T22:56:37.946Z,15.89
2022-10-11T22:59:04.536Z,15.84
2022-10-11T23:01:31.049Z,15.82
2022-10-11T23:03:57.631Z,15.84
2022-10-11T23:06:24.163Z,15.73
2022-10-11T23:08:50.656Z,15.56
2022-10-11T23:11:17.254Z,15.68
2022-10-11T23:13:43.793Z,15.74
2022-10-11T23:16:12.231Z,15.68
2022-10-11T23:18:39.157Z,15.68
2022-10-11T23:21:06.834Z,15.69
2022-10-11T23:23:33.709Z,15.71
2022-10-11T23:26:04.564Z,15.71
2022-10-11T23:28:31.791Z,15.77
2022-10-11T23:30:58.433Z,15.69
2022-10-11T23:33:25.187Z,15.73
2022-10-11T23:35:51.653Z,15.71
2022-10-11T23:38:18.182Z,15.72
2022-10-11T23:40:44.693Z,15.74
2022-10-11T23:43:11.233Z,15.75
2022-10-11T23:45:37.735Z,15.76
2022-10-11T23:48:04.658Z,15.72
2022-10-11T23:50:31.162Z,15.75
2022-10-11T23:52:57.684Z,15.78
2022-10-11T23:55:24.181Z,15.84
2022-10-11T23:57:50.679Z,15.86
